createdAt,value
2022-11-05T00:01:13.210Z,4.37
2022-11-05T00:03:57.940Z,4.36
2022-11-05T00:06:42.587Z,4.29
2022-11-05T00:09:27.455Z,4.31
2022-11-05T00:12:12.278Z,4.24
2022-11-05T00:14:56.906Z,4.26
2022-11-05T00:17:41.896Z,4.14
2022-11-05T00:20:26.672Z,4.07
2022-11-05T00:23:11.886Z,4.01
2022-11-05T00:25:56.606Z,3.94
2022-11-05T00:28:41.295Z,3.95
2022-11-05T00:31:26.160Z,3.92
2022-11-05T00:34:10.907Z,3.92
2022-11-05T00:36:55.756Z,3.93
2022-11-05T00:39:40.446Z,3.85
2022-11-05T00:42:25.101Z,3.75
2022-11-05T00:45:09.763Z,3.80
2022-11-05T00:47:54.530Z,3.84
2022-11-05T00:50:39.366Z,3.88
2022-11-05T00:53:24.061Z,3.95
2022-11-05T00:56:08.752Z,4.01
2022-11-05T00:58:53.395Z,4.06
2022-11-05T01:01:38.333Z,4.09
2022-11-05T01:04:23.540Z,4.10
2022-11-05T01:07:08.327Z,4.11
2022-11-05T01:09:53.082Z,4.17
2022-11-05T01:12:37.706Z,4.20
2022-11-05T01:15:22.517Z,4.22
2022-11-05T01:18:07.309Z,4.22
2022-11-05T01:20:52.014Z,4.24
2022-11-05T01:23:36.640Z,4.28
2022-11-05T01:26:21.475Z,4.28
2022-11-05T01:29:06.184Z,4.31
2022-11-05T01:31:51.072Z,4.31
2022-11-05T01:34:35.801Z,4.33
2022-11-05T01:37:20.643Z,4.42
2022-11-05T01:40:05.410Z,4.44
2022-11-05T01:42:50.198Z,4.52
2022-11-05T01:45:34.908Z,4.52
2022-11-05T01:48:19.643Z,4.49
2022-11-05T01:51:04.364Z,4.50
2022-11-05T01:53:49.217Z,4.52
2022-11-05T01:56:33.936Z,4.49
2022-11-05T01:59:18.833Z,4.53
2022-11-05T02:02:03.602Z,4.47
2022-11-05T02:04:48.811Z,4.46
2022-11-05T02:07:33.740Z,4.46
2022-11-05T02:10:18.373Z,4.43
2022-11-05T02:13:03.377Z,4.29
2022-11-05T02:15:48.070Z,4.32
2022-11-05T02:18:32.920Z,4.37
2022-11-05T02:21:17.673Z,4.47
2022-11-05T02:24:02.395Z,4.54
2022-11-05T02:26:47.369Z,4.53
2022-11-05T02:29:32.041Z,4.58
2022-11-05T02:32:17.002Z,4.64
2022-11-05T02:35:01.647Z,4.65
2022-11-05T02:37:46.469Z,4.81
2022-11-05T02:40:31.305Z,4.98
2022-11-05T02:43:16.455Z,5.12
2022-11-05T02:46:01.186Z,5.22
2022-11-05T02:48:46.008Z,5.21
2022-11-05T02:51:30.694Z,5.32
2022-11-05T02:54:15.371Z,5.48
2022-11-05T02:57:00.255Z,5.55
2022-11-05T02:59:44.875Z,5.60
2022-11-05T03:02:29.795Z,5.59
2022-11-05T03:05:16.246Z,5.53
2022-11-05T03:08:01.134Z,5.37
2022-11-05T03:10:45.755Z,5.14
2022-11-05T03:13:30.656Z,4.89
2022-11-05T03:16:15.421Z,4.71
2022-11-05T03:19:00.102Z,4.43
2022-11-05T03:21:44.802Z,4.25
2022-11-05T03:24:29.465Z,4.09
2022-11-05T03:27:14.228Z,4.01
2022-11-05T03:29:59.016Z,4.05
2022-11-05T03:32:43.864Z,4.08
2022-11-05T03:35:28.580Z,4.06
2022-11-05T03:38:13.296Z,4.11
2022-11-05T03:40:57.921Z,4.21
2022-11-05T03:43:42.657Z,4.31
2022-11-05T03:46:27.255Z,4.49
2022-11-05T03:49:12.050Z,4.57
2022-11-05T03:51:56.881Z,4.68
2022-11-05T03:54:41.507Z,4.71
2022-11-05T03:57:26.394Z,4.77
2022-11-05T04:00:11.014Z,4.76
2022-11-05T04:02:55.836Z,4.79
2022-11-05T04:05:40.787Z,4.85
2022-11-05T04:08:25.615Z,4.91
2022-11-05T04:11:10.279Z,4.94
2022-11-05T04:13:55.043Z,4.94
2022-11-05T04:16:39.720Z,5.00
2022-11-05T04:19:26.244Z,5.03
2022-11-05T04:22:11.262Z,5.03
2022-11-05T04:24:56.206Z,5.03
2022-11-05T04:27:41.167Z,5.00
2022-11-05T04:30:25.940Z,4.96
2022-11-05T04:33:10.984Z,4.92
2022-11-05T04:35:56.041Z,4.92
2022-11-05T04:38:40.852Z,4.94
2022-11-05T04:41:25.675Z,4.91
2022-11-05T04:44:10.405Z,4.87
2022-11-05T04:46:55.343Z,4.89
2022-11-05T04:49:40.134Z,4.86
2022-11-05T04:52:24.856Z,4.92
2022-11-05T04:55:09.475Z,4.87
2022-11-05T04:57:54.304Z,4.83
2022-11-05T05:00:39.050Z,4.82
2022-11-05T05:03:23.932Z,4.82
2022-11-05T05:06:08.699Z,4.80
2022-11-05T05:08:53.468Z,4.77
2022-11-05T05:11:38.201Z,4.82
2022-11-05T05:14:22.826Z,4.85
2022-11-05T05:17:07.782Z,4.91
2022-11-05T05:19:52.635Z,4.99
2022-11-05T05:22:37.532Z,5.02
2022-11-05T05:25:22.136Z,5.00
2022-11-05T05:28:06.920Z,5.00
2022-11-05T05:30:56.141Z,4.98
2022-11-05T05:33:43.368Z,4.95
2022-11-05T05:36:28.105Z,4.90
2022-11-05T05:39:12.869Z,4.85
2022-11-05T05:41:57.601Z,4.77
2022-11-05T05:44:42.486Z,4.73
2022-11-05T05:47:27.295Z,4.76
2022-11-05T05:50:12.145Z,4.76
2022-11-05T05:52:56.826Z,4.78
2022-11-05T05:55:41.563Z,4.82
2022-11-05T05:58:26.328Z,4.86
2022-11-05T06:01:15.562Z,4.91
2022-11-05T06:04:03.432Z,4.96
2022-11-05T06:06:48.118Z,5.02
2022-11-05T06:09:32.984Z,5.04
2022-11-05T06:12:17.672Z,5.10
2022-11-05T06:15:02.355Z,5.13
2022-11-05T06:17:47.212Z,5.13
2022-11-05T06:20:31.961Z,5.15
2022-11-05T06:23:16.627Z,5.25
2022-11-05T06:26:01.288Z,5.37
2022-11-05T06:28:45.995Z,5.54
2022-11-05T06:31:30.747Z,5.58
2022-11-05T06:34:15.524Z,5.63
2022-11-05T06:37:00.247Z,5.71
2022-11-05T06:39:44.892Z,5.78
2022-11-05T06:42:29.577Z,5.92
2022-11-05T06:45:14.373Z,5.91
2022-11-05T06:47:59.062Z,5.88
2022-11-05T06:50:43.784Z,5.87
2022-11-05T06:53:28.644Z,5.85
2022-11-05T06:56:13.378Z,5.71
2022-11-05T06:58:58.223Z,5.55
2022-11-05T07:01:43.100Z,5.33
2022-11-05T07:04:28.413Z,5.20
2022-11-05T07:07:13.204Z,5.15
2022-11-05T07:09:57.949Z,5.08
2022-11-05T07:12:42.646Z,4.95
2022-11-05T07:15:27.335Z,4.92
2022-11-05T07:18:11.999Z,4.83
2022-11-05T07:20:56.705Z,4.82
2022-11-05T07:23:41.585Z,4.83
2022-11-05T07:26:30.473Z,4.85
2022-11-05T07:29:18.088Z,4.86
2022-11-05T07:32:02.979Z,4.93
2022-11-05T07:34:47.648Z,5.13
2022-11-05T07:37:32.494Z,5.21
2022-11-05T07:40:17.188Z,5.30
2022-11-05T07:43:01.935Z,5.46
2022-11-05T07:45:46.618Z,5.54
2022-11-05T07:48:31.421Z,5.62
2022-11-05T07:51:16.053Z,5.73
2022-11-05T07:54:00.867Z,5.78
2022-11-05T07:56:45.579Z,5.82
2022-11-05T07:59:30.426Z,5.74
2022-11-05T08:02:15.357Z,5.70
2022-11-05T08:05:00.439Z,5.78
2022-11-05T08:07:45.216Z,5.89
2022-11-05T08:10:29.932Z,5.88
2022-11-05T08:13:14.847Z,5.98
2022-11-05T08:15:59.993Z,6.04
2022-11-05T08:18:44.751Z,6.06
2022-11-05T08:21:29.678Z,6.08
2022-11-05T08:24:14.525Z,6.07
2022-11-05T08:26:59.268Z,6.13
2022-11-05T08:29:44.017Z,6.28
2022-11-05T08:32:28.739Z,6.30
2022-11-05T08:35:13.411Z,6.41
2022-11-05T08:37:58.267Z,6.55
2022-11-05T08:40:42.890Z,6.70
2022-11-05T08:43:27.690Z,6.79
2022-11-05T08:46:12.515Z,6.90
2022-11-05T08:48:57.252Z,7.00
2022-11-05T08:51:41.905Z,7.06
2022-11-05T08:54:26.627Z,7.15
2022-11-05T08:57:11.444Z,7.38
2022-11-05T08:59:56.093Z,7.36
2022-11-05T09:02:41.000Z,7.26
2022-11-05T09:05:26.088Z,7.22
2022-11-05T09:08:10.858Z,7.13
2022-11-05T09:10:55.559Z,7.06
2022-11-05T09:13:40.405Z,7.09
2022-11-05T09:16:25.199Z,7.02
2022-11-05T09:19:09.938Z,6.78
2022-11-05T09:21:54.696Z,6.68
2022-11-05T09:24:39.327Z,7.02
2022-11-05T09:27:24.162Z,7.38
2022-11-05T09:30:08.889Z,7.53
2022-11-05T09:32:53.733Z,7.62
2022-11-05T09:35:38.387Z,7.65
2022-11-05T09:38:23.051Z,7.63
2022-11-05T09:41:07.771Z,7.50
2022-11-05T09:43:52.689Z,7.65
2022-11-05T09:46:37.894Z,7.82
2022-11-05T09:49:22.662Z,7.88
2022-11-05T09:52:07.515Z,7.96
2022-11-05T09:54:52.245Z,8.05
2022-11-05T09:57:37.005Z,8.03
2022-11-05T10:00:22.197Z,8.07
2022-11-05T10:03:07.466Z,8.23
2022-11-05T10:05:52.241Z,8.40
2022-11-05T10:08:36.923Z,8.61
2022-11-05T10:11:21.736Z,8.80
2022-11-05T10:14:06.519Z,8.86
2022-11-05T10:16:51.365Z,9.07
2022-11-05T10:19:36.205Z,9.23
2022-11-05T10:22:20.937Z,9.37
2022-11-05T10:25:05.586Z,9.43
2022-11-05T10:27:50.411Z,9.50
2022-11-05T10:30:35.124Z,9.55
2022-11-05T10:33:19.862Z,9.18
2022-11-05T10:36:04.681Z,8.92
2022-11-05T10:38:49.423Z,8.80
2022-11-05T10:41:34.054Z,8.78
2022-11-05T10:44:19.186Z,8.80
2022-11-05T10:47:04.146Z,9.03
2022-11-05T10:49:48.865Z,9.14
2022-11-05T10:52:33.734Z,9.28
2022-11-05T10:55:18.495Z,9.38
2022-11-05T10:58:03.180Z,9.33
2022-11-05T11:00:48.158Z,9.19
2022-11-05T11:03:33.400Z,8.78
2022-11-05T11:06:18.233Z,8.54
2022-11-05T11:09:03.204Z,8.41
2022-11-05T11:11:48.449Z,8.35
2022-11-05T11:14:33.084Z,8.45
2022-11-05T11:17:17.993Z,8.73
2022-11-05T11:20:02.732Z,8.69
2022-11-05T11:22:47.431Z,8.73
2022-11-05T11:25:32.140Z,8.87
2022-11-05T11:28:16.876Z,8.87
2022-11-05T11:31:01.683Z,8.92
2022-11-05T11:33:46.598Z,8.81
2022-11-05T11:36:31.265Z,8.86
2022-11-05T11:39:15.956Z,8.80
2022-11-05T11:42:00.716Z,8.74
2022-11-05T11:44:45.552Z,8.60
2022-11-05T11:47:30.468Z,8.45
2022-11-05T11:50:15.356Z,8.51
2022-11-05T11:52:59.994Z,8.55
2022-11-05T11:55:44.601Z,8.36
2022-11-05T11:58:29.299Z,8.23
2022-11-05T12:01:14.036Z,8.02
2022-11-05T12:03:58.734Z,8.11
2022-11-05T12:06:43.300Z,8.04
2022-11-05T12:09:28.046Z,8.23
2022-11-05T12:12:12.895Z,8.43
2022-11-05T12:14:57.463Z,8.60
2022-11-05T12:17:42.216Z,8.62
2022-11-05T12:20:27.043Z,8.69
2022-11-05T12:23:12.295Z,8.97
2022-11-05T12:25:57.215Z,9.23
2022-11-05T12:29:04.485Z,9.43
2022-11-05T12:31:47.069Z,9.51
2022-11-05T12:34:31.838Z,9.56
2022-11-05T12:37:16.656Z,9.55
2022-11-05T12:40:01.356Z,9.17
2022-11-05T12:42:46.166Z,8.86
2022-11-05T12:45:30.960Z,8.87
2022-11-05T12:48:16.239Z,8.81
2022-11-05T12:51:00.999Z,8.56
2022-11-05T12:53:45.692Z,8.56
2022-11-05T12:56:30.439Z,8.75
2022-11-05T12:59:15.128Z,8.88
2022-11-05T13:02:00.040Z,9.07
2022-11-05T13:04:45.243Z,9.20
2022-11-05T13:07:30.057Z,9.42
2022-11-05T13:10:14.809Z,9.56
2022-11-05T13:12:59.589Z,9.78
2022-11-05T13:15:44.413Z,9.96
2022-11-05T13:18:29.205Z,9.93
2022-11-05T13:21:13.878Z,9.67
2022-11-05T13:23:58.482Z,9.48
2022-11-05T13:26:43.417Z,9.23
2022-11-05T13:29:28.038Z,9.16
2022-11-05T13:32:13.405Z,9.31
2022-11-05T13:34:58.022Z,9.45
2022-11-05T13:37:42.747Z,9.62
2022-11-05T13:40:27.474Z,9.67
2022-11-05T13:43:12.401Z,9.73
2022-11-05T13:46:02.805Z,9.82
2022-11-05T13:48:50.181Z,9.83
2022-11-05T13:51:39.117Z,9.81
2022-11-05T13:54:24.323Z,9.78
2022-11-05T13:57:09.099Z,9.76
2022-11-05T13:59:53.967Z,9.79
2022-11-05T14:02:38.844Z,9.79
2022-11-05T14:05:23.499Z,9.74
2022-11-05T14:08:08.221Z,9.67
2022-11-05T14:10:52.979Z,9.68
2022-11-05T14:13:37.815Z,9.71
2022-11-05T14:16:22.586Z,9.72
2022-11-05T14:19:07.417Z,9.64
2022-11-05T14:21:52.167Z,9.62
2022-11-05T14:24:37.085Z,9.61
2022-11-05T14:27:21.942Z,9.56
2022-11-05T14:30:06.740Z,9.44
2022-11-05T14:32:51.760Z,9.42
2022-11-05T14:35:36.431Z,9.41
2022-11-05T14:38:21.342Z,9.37
2022-11-05T14:41:06.599Z,9.25
2022-11-05T14:43:51.446Z,9.23
2022-11-05T14:46:36.281Z,9.03
2022-11-05T14:49:21.308Z,9.02
2022-11-05T14:52:06.573Z,8.96
2022-11-05T14:54:51.260Z,8.81
2022-11-05T14:57:36.214Z,8.62
2022-11-05T15:00:20.959Z,8.51
2022-11-05T15:03:05.788Z,8.49
2022-11-05T15:05:50.580Z,8.41
2022-11-05T15:08:35.269Z,8.39
2022-11-05T15:11:19.944Z,8.37
2022-11-05T15:14:04.815Z,8.32
2022-11-05T15:16:49.681Z,8.16
2022-11-05T15:19:34.317Z,8.10
2022-11-05T15:22:19.024Z,8.11
2022-11-05T15:25:03.817Z,8.08
2022-11-05T15:27:48.686Z,7.90
2022-11-05T15:30:33.346Z,7.73
2022-11-05T15:33:18.245Z,7.57
2022-11-05T15:36:02.863Z,7.49
2022-11-05T15:39:08.208Z,7.43
2022-11-05T15:41:52.437Z,7.44
2022-11-05T15:44:37.162Z,7.45
2022-11-05T15:47:21.898Z,7.45
2022-11-05T15:50:13.096Z,7.43
2022-11-05T15:53:20.637Z,7.46
2022-11-05T15:56:04.289Z,7.43
2022-11-05T15:58:49.027Z,7.38
2022-11-05T16:01:33.854Z,7.34
2022-11-05T16:04:19.125Z,7.33
2022-11-05T16:07:03.779Z,7.18
2022-11-05T16:09:48.413Z,7.09
2022-11-05T16:12:33.193Z,7.11
2022-11-05T16:15:17.970Z,6.94
2022-11-05T16:18:02.818Z,6.89
2022-11-05T16:20:47.410Z,6.92
2022-11-05T16:23:32.285Z,6.88
2022-11-05T16:26:29.758Z,6.92
2022-11-05T16:29:22.102Z,6.79
2022-11-05T16:32:07.014Z,6.72
2022-11-05T16:34:52.024Z,6.65
2022-11-05T16:37:36.767Z,6.57
2022-11-05T16:40:21.383Z,6.47
2022-11-05T16:43:06.255Z,6.41
2022-11-05T16:45:50.903Z,6.39
2022-11-05T16:48:35.569Z,6.45
2022-11-05T16:51:26.271Z,6.39
2022-11-05T16:54:12.455Z,6.32
2022-11-05T16:56:57.358Z,6.16
2022-11-05T16:59:42.106Z,6.07
2022-11-05T17:02:26.955Z,6.09
2022-11-05T17:05:12.272Z,6.01
2022-11-05T17:07:56.906Z,5.97
2022-11-05T17:10:41.594Z,5.96
2022-11-05T17:13:26.340Z,5.89
2022-11-05T17:16:11.012Z,5.90
2022-11-05T17:18:55.687Z,5.88
2022-11-05T17:21:40.543Z,5.90
2022-11-05T17:24:25.299Z,5.89
2022-11-05T17:27:10.141Z,5.81
2022-11-05T17:29:54.978Z,5.77
2022-11-05T17:32:39.908Z,5.77
2022-11-05T17:35:24.660Z,5.67
2022-11-05T17:38:09.467Z,5.69
2022-11-05T17:40:54.246Z,5.65
2022-11-05T17:43:38.946Z,5.66
2022-11-05T17:46:23.670Z,5.62
2022-11-05T17:49:08.415Z,5.60
2022-11-05T17:51:53.210Z,5.46
2022-11-05T17:54:37.884Z,5.44
2022-11-05T17:57:22.811Z,5.37
2022-11-05T18:00:07.504Z,5.31
2022-11-05T18:02:52.192Z,5.33
2022-11-05T18:05:37.084Z,5.19
2022-11-05T18:08:22.332Z,5.05
2022-11-05T18:11:07.088Z,4.91
2022-11-05T18:13:51.819Z,4.89
2022-11-05T18:16:36.659Z,4.94
2022-11-05T18:19:21.395Z,5.03
2022-11-05T18:22:06.204Z,5.04
2022-11-05T18:24:51.038Z,5.01
2022-11-05T18:27:35.994Z,5.07
2022-11-05T18:30:20.998Z,5.08
2022-11-05T18:33:05.803Z,5.13
2022-11-05T18:35:51.084Z,5.15
2022-11-05T18:38:35.904Z,5.17
2022-11-05T18:41:21.215Z,5.17
2022-11-05T18:44:06.051Z,5.15
2022-11-05T18:46:58.191Z,5.22
2022-11-05T18:49:43.723Z,5.10
2022-11-05T18:52:28.615Z,5.03
2022-11-05T18:55:13.334Z,4.88
2022-11-05T18:57:58.107Z,4.72
2022-11-05T19:00:42.702Z,4.78
2022-11-05T19:03:27.503Z,4.84
2022-11-05T19:06:12.165Z,4.87
2022-11-05T19:08:57.508Z,4.83
2022-11-05T19:11:42.183Z,4.80
2022-11-05T19:14:26.935Z,4.82
2022-11-05T19:17:11.833Z,4.87
2022-11-05T19:19:56.583Z,4.83
2022-11-05T19:22:41.382Z,4.75
2022-11-05T19:25:26.090Z,4.67
2022-11-05T19:28:11.058Z,4.48
2022-11-05T19:30:56.115Z,4.32
2022-11-05T19:33:41.000Z,4.26
2022-11-05T19:36:26.036Z,4.21
2022-11-05T19:39:11.078Z,4.36
2022-11-05T19:42:01.986Z,4.40
2022-11-05T19:44:48.701Z,4.54
2022-11-05T19:47:33.472Z,4.47
2022-11-05T19:50:19.343Z,4.46
2022-11-05T19:53:04.890Z,4.36
2022-11-05T19:55:49.709Z,4.31
2022-11-05T19:58:34.417Z,4.24
2022-11-05T20:01:19.240Z,4.15
2022-11-05T20:04:04.294Z,4.20
2022-11-05T20:06:49.031Z,4.28
2022-11-05T20:09:33.755Z,4.28
2022-11-05T20:12:18.527Z,4.32
2022-11-05T20:15:03.306Z,4.34
2022-11-05T20:17:48.026Z,4.29
2022-11-05T20:20:32.868Z,4.28
2022-11-05T20:23:17.676Z,4.30
2022-11-05T20:26:02.467Z,4.38
2022-11-05T20:28:47.230Z,4.52
2022-11-05T20:31:32.178Z,4.55
2022-11-05T20:34:16.906Z,4.59
2022-11-05T20:37:01.625Z,4.66
2022-11-05T20:39:46.250Z,4.65
2022-11-05T20:42:30.985Z,4.58
2022-11-05T20:45:15.722Z,4.56
2022-11-05T20:48:00.354Z,4.44
2022-11-05T20:50:45.129Z,4.28
2022-11-05T20:53:29.848Z,4.22
2022-11-05T20:56:14.636Z,4.29
2022-11-05T20:58:59.476Z,4.36
2022-11-05T21:01:44.328Z,4.37
2022-11-05T21:04:29.439Z,4.37
2022-11-05T21:07:14.172Z,4.38
2022-11-05T21:09:59.009Z,4.36
2022-11-05T21:12:43.704Z,4.30
2022-11-05T21:15:28.470Z,4.28
2022-11-05T21:18:13.460Z,4.24
2022-11-05T21:20:58.564Z,4.17
2022-11-05T21:23:43.347Z,4.13
2022-11-05T21:26:28.243Z,4.11
2022-11-05T21:29:12.895Z,4.03
2022-11-05T21:31:57.651Z,4.05
2022-11-05T21:34:42.349Z,4.08
2022-11-05T21:37:27.286Z,4.12
2022-11-05T21:40:12.026Z,4.17
2022-11-05T21:42:56.642Z,4.20
2022-11-05T21:45:41.280Z,4.24
2022-11-05T21:48:26.066Z,4.28
2022-11-05T21:51:11.009Z,4.28
2022-11-05T21:53:55.739Z,4.26
2022-11-05T21:56:40.522Z,4.27
2022-11-05T21:59:25.347Z,4.26
2022-11-05T22:02:10.159Z,4.23
2022-11-05T22:04:55.379Z,4.16
2022-11-05T22:07:40.186Z,4.06
2022-11-05T22:10:25.067Z,4.02
2022-11-05T22:13:09.808Z,4.09
2022-11-05T22:15:54.743Z,4.18
2022-11-05T22:18:39.407Z,4.18
2022-11-05T22:21:24.326Z,4.16
2022-11-05T22:24:09.092Z,4.18
2022-11-05T22:26:53.878Z,4.23
2022-11-05T22:29:38.572Z,4.21
2022-11-05T22:32:23.333Z,4.18
2022-11-05T22:35:07.999Z,4.17
2022-11-05T22:37:52.759Z,4.13
2022-11-05T22:40:37.670Z,4.14
2022-11-05T22:43:22.553Z,4.11
2022-11-05T22:46:07.292Z,4.06
2022-11-05T22:48:52.133Z,4.07
2022-11-05T22:51:37.004Z,4.06
2022-11-05T22:54:21.658Z,4.09
2022-11-05T22:57:06.503Z,4.09
2022-11-05T22:59:51.337Z,4.11
2022-11-05T23:02:36.163Z,4.07
2022-11-05T23:05:21.344Z,4.05
2022-11-05T23:08:06.075Z,3.98
2022-11-05T23:10:50.892Z,3.82
2022-11-05T23:13:35.570Z,3.86
2022-11-05T23:16:20.367Z,3.83
2022-11-05T23:19:05.012Z,3.78
2022-11-05T23:21:50.035Z,3.79
2022-11-05T23:24:34.799Z,3.81
2022-11-05T23:27:19.680Z,3.76
2022-11-05T23:30:04.647Z,3.74
2022-11-05T23:32:49.404Z,3.78
2022-11-05T23:35:34.303Z,3.79
2022-11-05T23:38:19.075Z,3.86
2022-11-05T23:41:03.920Z,3.86
2022-11-05T23:43:48.622Z,3.84
2022-11-05T23:46:33.396Z,3.86
2022-11-05T23:49:18.129Z,3.78
2022-11-05T23:52:02.788Z,3.77
2022-11-05T23:54:47.537Z,3.76
2022-11-05T23:57:32.316Z,3.82
